sensor_id;sensor_type;location;lat;lon;timestamp;P1;durP1;ratioP1;P2;durP2;ratioP2
9248;SDS011;4660;41.768;26.198;2022-12-18T00:01:01;49.00;;;31.87;;
9248;SDS011;4660;41.768;26.198;2022-12-18T00:03:34;49.40;;;32.17;;
9248;SDS011;4660;41.768;26.198;2022-12-18T00:06:00;45.63;;;30.63;;
9248;SDS011;4660;41.768;26.198;2022-12-18T00:08:26;46.67;;;32.40;;
9248;SDS011;4660;41.768;26.198;2022-12-18T00:10:53;47.30;;;30.60;;
9248;SDS011;4660;41.768;26.198;2022-12-18T00:13:19;45.67;;;30.60;;
9248;SDS011;4660;41.768;26.198;2022-12-18T00:15:44;48.73;;;31.27;;
9248;SDS011;4660;41.768;26.198;2022-12-18T00:18:10;48.00;;;31.53;;
9248;SDS011;4660;41.768;26.198;2022-12-18T00:20:39;50.70;;;31.20;;
9248;SDS011;4660;41.768;26.198;2022-12-18T00:23:05;50.07;;;32.57;;
9248;SDS011;4660;41.768;26.198;2022-12-18T00:25:35;49.90;;;33.00;;
9248;SDS011;4660;41.768;26.198;2022-12-18T00:28:02;51.47;;;34.57;;
9248;SDS011;4660;41.768;26.198;2022-12-18T00:30:28;62.43;;;38.40;;
9248;SDS011;4660;41.768;26.198;2022-12-18T00:32:54;49.63;;;34.37;;
9248;SDS011;4660;41.768;26.198;2022-12-18T00:35:19;48.57;;;31.73;;
9248;SDS011;4660;41.768;26.198;2022-12-18T00:37:45;45.87;;;29.33;;
9248;SDS011;4660;41.768;26.198;2022-12-18T00:40:11;43.37;;;30.60;;
9248;SDS011;4660;41.768;26.198;2022-12-18T00:42:37;54.17;;;31.87;;
9248;SDS011;4660;41.768;26.198;2022-12-18T00:45:21;50.00;;;31.53;;
9248;SDS011;4660;41.768;26.198;2022-12-18T00:47:48;44.97;;;30.83;;
9248;SDS011;4660;41.768;26.198;2022-12-18T00:50:13;53.23;;;32.60;;
9248;SDS011;4660;41.768;26.198;2022-12-18T00:52:39;45.50;;;31.37;;
9248;SDS011;4660;41.768;26.198;2022-12-18T00:55:04;44.83;;;30.27;;
9248;SDS011;4660;41.768;26.198;2022-12-18T00:57:30;51.17;;;32.93;;
9248;SDS011;4660;41.768;26.198;2022-12-18T00:59:56;50.20;;;32.67;;
9248;SDS011;4660;41.768;26.198;2022-12-18T01:02:21;53.20;;;33.00;;
9248;SDS011;4660;41.768;26.198;2022-12-18T01:04:47;50.90;;;32.33;;
9248;SDS011;4660;41.768;26.198;2022-12-18T01:07:12;43.83;;;29.47;;
9248;SDS011;4660;41.768;26.198;2022-12-18T01:09:38;45.83;;;30.83;;
9248;SDS011;4660;41.768;26.198;2022-12-18T01:12:03;49.77;;;32.13;;
9248;SDS011;4660;41.768;26.198;2022-12-18T01:14:29;46.23;;;30.93;;
9248;SDS011;4660;41.768;26.198;2022-12-18T01:16:54;50.27;;;33.70;;
9248;SDS011;4660;41.768;26.198;2022-12-18T01:19:20;50.53;;;32.50;;
9248;SDS011;4660;41.768;26.198;2022-12-18T01:21:45;56.57;;;32.07;;
9248;SDS011;4660;41.768;26.198;2022-12-18T01:24:11;54.07;;;31.80;;
9248;SDS011;4660;41.768;26.198;2022-12-18T01:26:37;50.93;;;32.70;;
9248;SDS011;4660;41.768;26.198;2022-12-18T01:29:03;50.47;;;33.37;;
9248;SDS011;4660;41.768;26.198;2022-12-18T01:31:30;49.77;;;32.80;;
9248;SDS011;4660;41.768;26.198;2022-12-18T01:33:57;58.80;;;34.33;;
9248;SDS011;4660;41.768;26.198;2022-12-18T01:36:29;60.73;;;34.53;;
9248;SDS011;4660;41.768;26.198;2022-12-18T01:38:59;49.30;;;33.13;;
9248;SDS011;4660;41.768;26.198;2022-12-18T01:41:27;52.80;;;33.00;;
9248;SDS011;4660;41.768;26.198;2022-12-18T01:47:18;50.97;;;31.10;;
9248;SDS011;4660;41.768;26.198;2022-12-18T01:49:47;60.07;;;33.13;;
9248;SDS011;4660;41.768;26.198;2022-12-18T01:52:13;53.50;;;34.43;;
9248;SDS011;4660;41.768;26.198;2022-12-18T01:54:39;57.83;;;34.47;;
9248;SDS011;4660;41.768;26.198;2022-12-18T01:57:05;55.97;;;34.30;;
9248;SDS011;4660;41.768;26.198;2022-12-18T01:59:31;54.93;;;34.30;;
9248;SDS011;4660;41.768;26.198;2022-12-18T02:01:59;56.73;;;33.50;;
9248;SDS011;4660;41.768;26.198;2022-12-18T02:04:26;56.20;;;35.03;;
9248;SDS011;4660;41.768;26.198;2022-12-18T02:10:04;52.20;;;32.23;;
9248;SDS011;4660;41.768;26.198;2022-12-18T02:18:17;57.83;;;36.07;;
9248;SDS011;4660;41.768;26.198;2022-12-18T02:20:48;57.93;;;33.27;;
9248;SDS011;4660;41.768;26.198;2022-12-18T02:29:10;52.87;;;30.87;;
9248;SDS011;4660;41.768;26.198;2022-12-18T02:31:41;56.47;;;32.10;;
9248;SDS011;4660;41.768;26.198;2022-12-18T02:34:10;57.03;;;33.40;;
9248;SDS011;4660;41.768;26.198;2022-12-18T02:36:39;54.87;;;31.77;;
9248;SDS011;4660;41.768;26.198;2022-12-18T02:39:07;64.87;;;36.57;;
9248;SDS011;4660;41.768;26.198;2022-12-18T02:41:36;63.80;;;35.37;;
9248;SDS011;4660;41.768;26.198;2022-12-18T02:44:07;60.20;;;35.10;;
9248;SDS011;4660;41.768;26.198;2022-12-18T02:46:39;63.57;;;33.17;;
9248;SDS011;4660;41.768;26.198;2022-12-18T02:49:16;65.23;;;35.53;;
9248;SDS011;4660;41.768;26.198;2022-12-18T02:52:12;55.33;;;33.63;;
9248;SDS011;4660;41.768;26.198;2022-12-18T02:57:49;64.90;;;37.37;;
9248;SDS011;4660;41.768;26.198;2022-12-18T03:07:46;50.30;;;33.57;;
9248;SDS011;4660;41.768;26.198;2022-12-18T03:10:18;55.33;;;32.13;;
9248;SDS011;4660;41.768;26.198;2022-12-18T03:12:52;55.73;;;30.13;;
9248;SDS011;4660;41.768;26.198;2022-12-18T03:15:27;56.57;;;32.13;;
9248;SDS011;4660;41.768;26.198;2022-12-18T03:18:02;60.10;;;33.87;;
9248;SDS011;4660;41.768;26.198;2022-12-18T03:20:34;55.03;;;35.40;;
9248;SDS011;4660;41.768;26.198;2022-12-18T03:23:04;66.57;;;40.37;;
9248;SDS011;4660;41.768;26.198;2022-12-18T03:25:35;57.80;;;34.03;;
9248;SDS011;4660;41.768;26.198;2022-12-18T03:28:06;53.13;;;29.97;;
9248;SDS011;4660;41.768;26.198;2022-12-18T03:30:37;59.10;;;34.10;;
9248;SDS011;4660;41.768;26.198;2022-12-18T03:33:08;54.70;;;30.70;;
9248;SDS011;4660;41.768;26.198;2022-12-18T03:35:39;60.10;;;33.30;;
9248;SDS011;4660;41.768;26.198;2022-12-18T03:38:08;54.90;;;29.73;;
9248;SDS011;4660;41.768;26.198;2022-12-18T03:46:09;49.93;;;28.07;;
9248;SDS011;4660;41.768;26.198;2022-12-18T03:48:48;51.43;;;31.77;;
9248;SDS011;4660;41.768;26.198;2022-12-18T03:51:50;54.40;;;30.23;;
9248;SDS011;4660;41.768;26.198;2022-12-18T03:54:22;48.37;;;29.20;;
9248;SDS011;4660;41.768;26.198;2022-12-18T03:56:51;54.13;;;29.73;;
9248;SDS011;4660;41.768;26.198;2022-12-18T03:59:24;54.30;;;29.60;;
9248;SDS011;4660;41.768;26.198;2022-12-18T04:01:52;50.20;;;29.43;;
9248;SDS011;4660;41.768;26.198;2022-12-18T04:04:20;49.43;;;29.70;;
9248;SDS011;4660;41.768;26.198;2022-12-18T04:06:47;51.97;;;30.17;;
9248;SDS011;4660;41.768;26.198;2022-12-18T04:09:15;47.63;;;27.30;;
9248;SDS011;4660;41.768;26.198;2022-12-18T04:11:41;48.23;;;28.73;;
9248;SDS011;4660;41.768;26.198;2022-12-18T04:14:09;45.60;;;26.80;;
9248;SDS011;4660;41.768;26.198;2022-12-18T04:16:35;45.77;;;27.80;;
9248;SDS011;4660;41.768;26.198;2022-12-18T04:19:00;47.37;;;29.33;;
9248;SDS011;4660;41.768;26.198;2022-12-18T04:21:26;47.90;;;28.43;;
9248;SDS011;4660;41.768;26.198;2022-12-18T04:23:52;45.33;;;28.43;;
9248;SDS011;4660;41.768;26.198;2022-12-18T04:26:17;45.67;;;28.23;;
9248;SDS011;4660;41.768;26.198;2022-12-18T04:28:43;50.70;;;30.47;;
9248;SDS011;4660;41.768;26.198;2022-12-18T04:31:08;49.67;;;30.43;;
9248;SDS011;4660;41.768;26.198;2022-12-18T04:33:34;45.37;;;27.17;;
9248;SDS011;4660;41.768;26.198;2022-12-18T04:35:59;47.00;;;28.43;;
9248;SDS011;4660;41.768;26.198;2022-12-18T04:38:25;41.27;;;26.87;;
9248;SDS011;4660;41.768;26.198;2022-12-18T04:40:50;47.00;;;29.23;;
9248;SDS011;4660;41.768;26.198;2022-12-18T04:43:16;49.20;;;30.03;;
9248;SDS011;4660;41.768;26.198;2022-12-18T04:45:42;51.30;;;31.83;;
9248;SDS011;4660;41.768;26.198;2022-12-18T04:48:07;52.70;;;32.50;;
9248;SDS011;4660;41.768;26.198;2022-12-18T04:50:33;56.27;;;34.00;;
9248;SDS011;4660;41.768;26.198;2022-12-18T04:52:59;53.10;;;33.30;;
9248;SDS011;4660;41.768;26.198;2022-12-18T04:55:24;51.97;;;32.93;;
9248;SDS011;4660;41.768;26.198;2022-12-18T04:57:50;49.53;;;32.73;;
9248;SDS011;4660;41.768;26.198;2022-12-18T05:00:16;41.30;;;27.57;;
9248;SDS011;4660;41.768;26.198;2022-12-18T05:02:42;50.53;;;32.53;;
9248;SDS011;4660;41.768;26.198;2022-12-18T05:05:07;47.17;;;31.13;;
9248;SDS011;4660;41.768;26.198;2022-12-18T05:07:33;48.00;;;31.63;;
9248;SDS011;4660;41.768;26.198;2022-12-18T05:09:59;49.90;;;32.50;;
9248;SDS011;4660;41.768;26.198;2022-12-18T05:12:25;53.30;;;32.10;;
9248;SDS011;4660;41.768;26.198;2022-12-18T05:14:51;49.87;;;32.13;;
9248;SDS011;4660;41.768;26.198;2022-12-18T05:17:17;46.20;;;32.03;;
9248;SDS011;4660;41.768;26.198;2022-12-18T05:19:42;46.43;;;31.07;;
9248;SDS011;4660;41.768;26.198;2022-12-18T05:22:08;41.43;;;30.57;;
9248;SDS011;4660;41.768;26.198;2022-12-18T05:24:34;40.37;;;29.57;;
9248;SDS011;4660;41.768;26.198;2022-12-18T05:27:00;42.60;;;29.27;;
9248;SDS011;4660;41.768;26.198;2022-12-18T05:29:25;42.10;;;29.93;;
9248;SDS011;4660;41.768;26.198;2022-12-18T05:31:51;39.83;;;28.93;;
9248;SDS011;4660;41.768;26.198;2022-12-18T05:34:17;45.70;;;29.83;;
9248;SDS011;4660;41.768;26.198;2022-12-18T05:36:42;44.17;;;30.87;;
9248;SDS011;4660;41.768;26.198;2022-12-18T05:39:08;43.63;;;31.90;;
9248;SDS011;4660;41.768;26.198;2022-12-18T05:41:34;47.20;;;30.47;;
9248;SDS011;4660;41.768;26.198;2022-12-18T05:43:59;43.50;;;30.10;;
9248;SDS011;4660;41.768;26.198;2022-12-18T05:46:25;39.70;;;28.60;;
9248;SDS011;4660;41.768;26.198;2022-12-18T05:48:51;41.10;;;27.63;;
9248;SDS011;4660;41.768;26.198;2022-12-18T05:51:19;41.03;;;28.27;;
9248;SDS011;4660;41.768;26.198;2022-12-18T05:53:45;40.50;;;27.70;;
9248;SDS011;4660;41.768;26.198;2022-12-18T05:56:13;39.83;;;28.57;;
9248;SDS011;4660;41.768;26.198;2022-12-18T05:58:40;42.63;;;28.47;;
9248;SDS011;4660;41.768;26.198;2022-12-18T06:01:16;44.57;;;29.33;;
9248;SDS011;4660;41.768;26.198;2022-12-18T06:03:44;35.63;;;27.30;;
9248;SDS011;4660;41.768;26.198;2022-12-18T06:06:42;36.53;;;26.67;;
9248;SDS011;4660;41.768;26.198;2022-12-18T06:09:10;39.50;;;27.70;;
9248;SDS011;4660;41.768;26.198;2022-12-18T06:11:41;40.10;;;27.70;;
9248;SDS011;4660;41.768;26.198;2022-12-18T06:14:06;36.00;;;26.97;;
9248;SDS011;4660;41.768;26.198;2022-12-18T06:16:32;36.33;;;27.63;;
9248;SDS011;4660;41.768;26.198;2022-12-18T06:18:59;42.90;;;29.63;;
9248;SDS011;4660;41.768;26.198;2022-12-18T06:21:26;39.60;;;28.53;;
9248;SDS011;4660;41.768;26.198;2022-12-18T06:23:53;37.03;;;28.77;;
9248;SDS011;4660;41.768;26.198;2022-12-18T06:26:18;35.83;;;26.30;;
9248;SDS011;4660;41.768;26.198;2022-12-18T06:28:44;41.43;;;26.73;;
9248;SDS011;4660;41.768;26.198;2022-12-18T06:31:10;33.63;;;25.80;;
9248;SDS011;4660;41.768;26.198;2022-12-18T06:33:36;39.50;;;27.47;;
9248;SDS011;4660;41.768;26.198;2022-12-18T06:36:07;35.93;;;24.50;;
9248;SDS011;4660;41.768;26.198;2022-12-18T06:38:35;33.80;;;24.27;;
9248;SDS011;4660;41.768;26.198;2022-12-18T06:41:09;37.53;;;25.77;;
9248;SDS011;4660;41.768;26.198;2022-12-18T06:43:37;32.30;;;24.83;;
9248;SDS011;4660;41.768;26.198;2022-12-18T06:46:03;31.80;;;26.23;;
9248;SDS011;4660;41.768;26.198;2022-12-18T06:48:29;34.73;;;27.10;;
9248;SDS011;4660;41.768;26.198;2022-12-18T06:50:55;42.17;;;29.43;;
9248;SDS011;4660;41.768;26.198;2022-12-18T06:53:21;32.30;;;24.77;;
9248;SDS011;4660;41.768;26.198;2022-12-18T06:55:47;32.33;;;23.90;;
9248;SDS011;4660;41.768;26.198;2022-12-18T06:58:13;32.53;;;23.37;;
9248;SDS011;4660;41.768;26.198;2022-12-18T07:00:38;33.60;;;24.23;;
9248;SDS011;4660;41.768;26.198;2022-12-18T07:03:04;30.53;;;23.10;;
9248;SDS011;4660;41.768;26.198;2022-12-18T07:05:29;29.13;;;21.83;;
9248;SDS011;4660;41.768;26.198;2022-12-18T07:07:55;39.00;;;29.43;;
9248;SDS011;4660;41.768;26.198;2022-12-18T07:10:21;47.93;;;32.97;;
9248;SDS011;4660;41.768;26.198;2022-12-18T07:12:49;39.03;;;27.57;;
9248;SDS011;4660;41.768;26.198;2022-12-18T07:15:15;39.30;;;27.50;;
9248;SDS011;4660;41.768;26.198;2022-12-18T07:17:40;38.40;;;26.73;;
9248;SDS011;4660;41.768;26.198;2022-12-18T07:20:07;34.17;;;23.20;;
9248;SDS011;4660;41.768;26.198;2022-12-18T07:22:33;33.20;;;24.83;;
9248;SDS011;4660;41.768;26.198;2022-12-18T07:24:59;45.30;;;30.70;;
9248;SDS011;4660;41.768;26.198;2022-12-18T07:27:26;41.57;;;31.77;;
9248;SDS011;4660;41.768;26.198;2022-12-18T07:29:51;40.67;;;30.40;;
9248;SDS011;4660;41.768;26.198;2022-12-18T07:32:18;46.13;;;33.27;;
9248;SDS011;4660;41.768;26.198;2022-12-18T07:34:44;51.20;;;33.10;;
9248;SDS011;4660;41.768;26.198;2022-12-18T07:37:11;42.83;;;28.37;;
9248;SDS011;4660;41.768;26.198;2022-12-18T07:39:37;29.83;;;21.73;;
9248;SDS011;4660;41.768;26.198;2022-12-18T07:42:03;33.13;;;23.83;;
9248;SDS011;4660;41.768;26.198;2022-12-18T07:44:49;42.23;;;26.70;;
9248;SDS011;4660;41.768;26.198;2022-12-18T07:47:20;32.20;;;23.03;;
9248;SDS011;4660;41.768;26.198;2022-12-18T07:49:46;31.73;;;21.27;;
9248;SDS011;4660;41.768;26.198;2022-12-18T07:52:13;31.37;;;22.70;;
9248;SDS011;4660;41.768;26.198;2022-12-18T07:54:40;29.27;;;20.53;;
9248;SDS011;4660;41.768;26.198;2022-12-18T07:57:06;27.17;;;21.00;;
9248;SDS011;4660;41.768;26.198;2022-12-18T07:59:35;33.30;;;23.60;;
9248;SDS011;4660;41.768;26.198;2022-12-18T08:02:01;31.20;;;23.87;;
9248;SDS011;4660;41.768;26.198;2022-12-18T08:04:26;33.57;;;23.80;;
9248;SDS011;4660;41.768;26.198;2022-12-18T08:06:54;33.13;;;24.07;;
9248;SDS011;4660;41.768;26.198;2022-12-18T08:09:22;36.33;;;28.37;;
9248;SDS011;4660;41.768;26.198;2022-12-18T08:11:52;37.07;;;26.70;;
9248;SDS011;4660;41.768;26.198;2022-12-18T08:14:20;32.67;;;24.90;;
9248;SDS011;4660;41.768;26.198;2022-12-18T08:16:46;35.93;;;25.20;;
9248;SDS011;4660;41.768;26.198;2022-12-18T08:19:12;33.63;;;23.97;;
9248;SDS011;4660;41.768;26.198;2022-12-18T08:21:37;28.50;;;22.93;;
9248;SDS011;4660;41.768;26.198;2022-12-18T08:24:04;26.17;;;19.00;;
9248;SDS011;4660;41.768;26.198;2022-12-18T08:26:31;56.90;;;38.03;;
9248;SDS011;4660;41.768;26.198;2022-12-18T08:28:57;48.40;;;29.03;;
9248;SDS011;4660;41.768;26.198;2022-12-18T08:31:28;80.47;;;43.97;;
9248;SDS011;4660;41.768;26.198;2022-12-18T08:33:55;28.57;;;18.27;;
9248;SDS011;4660;41.768;26.198;2022-12-18T08:36:21;29.20;;;20.17;;
9248;SDS011;4660;41.768;26.198;2022-12-18T08:38:48;23.87;;;16.20;;
9248;SDS011;4660;41.768;26.198;2022-12-18T08:41:14;19.83;;;12.97;;
9248;SDS011;4660;41.768;26.198;2022-12-18T08:43:42;18.43;;;13.47;;
9248;SDS011;4660;41.768;26.198;2022-12-18T08:46:27;19.30;;;14.70;;
9248;SDS011;4660;41.768;26.198;2022-12-18T08:48:56;40.53;;;26.67;;
9248;SDS011;4660;41.768;26.198;2022-12-18T08:51:23;33.37;;;22.23;;
9248;SDS011;4660;41.768;26.198;2022-12-18T08:53:49;43.03;;;24.87;;
9248;SDS011;4660;41.768;26.198;2022-12-18T08:56:15;31.70;;;21.13;;
9248;SDS011;4660;41.768;26.198;2022-12-18T08:58:41;21.93;;;17.57;;
9248;SDS011;4660;41.768;26.198;2022-12-18T09:01:09;19.50;;;15.93;;
9248;SDS011;4660;41.768;26.198;2022-12-18T09:03:37;21.93;;;17.10;;
9248;SDS011;4660;41.768;26.198;2022-12-18T09:06:03;17.97;;;15.07;;
9248;SDS011;4660;41.768;26.198;2022-12-18T09:08:30;19.00;;;15.13;;
9248;SDS011;4660;41.768;26.198;2022-12-18T09:10:56;21.50;;;15.77;;
9248;SDS011;4660;41.768;26.198;2022-12-18T09:13:22;17.33;;;15.07;;
9248;SDS011;4660;41.768;26.198;2022-12-18T09:15:49;15.77;;;14.07;;
9248;SDS011;4660;41.768;26.198;2022-12-18T09:18:17;15.80;;;11.60;;
9248;SDS011;4660;41.768;26.198;2022-12-18T09:20:45;16.97;;;12.87;;
9248;SDS011;4660;41.768;26.198;2022-12-18T09:23:11;17.53;;;12.77;;
9248;SDS011;4660;41.768;26.198;2022-12-18T09:25:38;15.83;;;12.43;;
9248;SDS011;4660;41.768;26.198;2022-12-18T09:30:36;17.80;;;13.87;;
9248;SDS011;4660;41.768;26.198;2022-12-18T09:33:04;24.10;;;16.93;;
9248;SDS011;4660;41.768;26.198;2022-12-18T09:35:30;18.77;;;14.97;;
9248;SDS011;4660;41.768;26.198;2022-12-18T09:38:00;17.80;;;14.80;;
9248;SDS011;4660;41.768;26.198;2022-12-18T09:40:27;20.40;;;16.80;;
9248;SDS011;4660;41.768;26.198;2022-12-18T09:42:59;19.90;;;15.10;;
9248;SDS011;4660;41.768;26.198;2022-12-18T09:45:30;23.80;;;14.73;;
9248;SDS011;4660;41.768;26.198;2022-12-18T09:48:05;18.47;;;12.83;;
9248;SDS011;4660;41.768;26.198;2022-12-18T09:50:38;19.10;;;12.93;;
9248;SDS011;4660;41.768;26.198;2022-12-18T09:53:06;13.73;;;11.63;;
9248;SDS011;4660;41.768;26.198;2022-12-18T09:55:42;13.43;;;11.07;;
9248;SDS011;4660;41.768;26.198;2022-12-18T09:58:30;14.53;;;11.30;;
9248;SDS011;4660;41.768;26.198;2022-12-18T10:01:02;12.10;;;10.23;;
9248;SDS011;4660;41.768;26.198;2022-12-18T10:03:28;12.80;;;10.90;;
9248;SDS011;4660;41.768;26.198;2022-12-18T10:06:02;14.77;;;10.17;;
9248;SDS011;4660;41.768;26.198;2022-12-18T10:12:19;12.03;;;9.80;;
9248;SDS011;4660;41.768;26.198;2022-12-18T10:18:15;12.90;;;10.00;;
9248;SDS011;4660;41.768;26.198;2022-12-18T10:20:56;14.80;;;10.93;;
9248;SDS011;4660;41.768;26.198;2022-12-18T10:26:17;11.63;;;9.33;;
9248;SDS011;4660;41.768;26.198;2022-12-18T10:28:43;12.03;;;9.63;;
9248;SDS011;4660;41.768;26.198;2022-12-18T10:31:20;11.60;;;9.43;;
9248;SDS011;4660;41.768;26.198;2022-12-18T10:33:49;13.90;;;9.57;;
9248;SDS011;4660;41.768;26.198;2022-12-18T10:36:16;10.67;;;9.57;;
9248;SDS011;4660;41.768;26.198;2022-12-18T10:38:42;13.23;;;10.97;;
9248;SDS011;4660;41.768;26.198;2022-12-18T10:43:47;18.30;;;12.73;;
9248;SDS011;4660;41.768;26.198;2022-12-18T10:46:19;15.90;;;11.83;;
9248;SDS011;4660;41.768;26.198;2022-12-18T10:51:27;19.70;;;12.97;;
9248;SDS011;4660;41.768;26.198;2022-12-18T10:54:37;15.93;;;11.33;;
9248;SDS011;4660;41.768;26.198;2022-12-18T10:56:48;13.23;;;10.90;;
9248;SDS011;4660;41.768;26.198;2022-12-18T10:59:18;19.27;;;13.43;;
9248;SDS011;4660;41.768;26.198;2022-12-18T11:04:40;15.37;;;10.50;;
9248;SDS011;4660;41.768;26.198;2022-12-18T11:07:17;14.93;;;10.60;;
9248;SDS011;4660;41.768;26.198;2022-12-18T11:09:45;9.63;;;7.97;;
9248;SDS011;4660;41.768;26.198;2022-12-18T11:12:26;7.90;;;5.20;;
9248;SDS011;4660;41.768;26.198;2022-12-18T11:14:56;8.50;;;5.73;;
9248;SDS011;4660;41.768;26.198;2022-12-18T11:17:30;9.20;;;7.20;;
9248;SDS011;4660;41.768;26.198;2022-12-18T11:20:04;9.13;;;7.33;;
9248;SDS011;4660;41.768;26.198;2022-12-18T11:22:33;11.07;;;6.03;;
9248;SDS011;4660;41.768;26.198;2022-12-18T11:27:38;12.60;;;6.30;;
9248;SDS011;4660;41.768;26.198;2022-12-18T11:30:10;11.83;;;7.23;;
9248;SDS011;4660;41.768;26.198;2022-12-18T11:33:11;16.73;;;10.20;;
9248;SDS011;4660;41.768;26.198;2022-12-18T11:38:25;14.10;;;10.30;;
9248;SDS011;4660;41.768;26.198;2022-12-18T11:40:58;17.30;;;12.40;;
9248;SDS011;4660;41.768;26.198;2022-12-18T11:43:50;12.13;;;9.77;;
9248;SDS011;4660;41.768;26.198;2022-12-18T11:48:58;4.03;;;3.47;;
9248;SDS011;4660;41.768;26.198;2022-12-18T11:54:41;3.53;;;3.23;;
9248;SDS011;4660;41.768;26.198;2022-12-18T11:59:55;9.73;;;7.27;;
9248;SDS011;4660;41.768;26.198;2022-12-18T12:05:28;12.20;;;9.90;;
9248;SDS011;4660;41.768;26.198;2022-12-18T12:16:46;10.10;;;6.43;;
9248;SDS011;4660;41.768;26.198;2022-12-18T12:22:22;11.33;;;8.60;;
9248;SDS011;4660;41.768;26.198;2022-12-18T12:39:35;11.90;;;7.23;;
9248;SDS011;4660;41.768;26.198;2022-12-18T12:45:22;9.23;;;7.57;;
9248;SDS011;4660;41.768;26.198;2022-12-18T12:47:55;7.83;;;5.80;;
9248;SDS011;4660;41.768;26.198;2022-12-18T12:50:25;8.73;;;6.33;;
9248;SDS011;4660;41.768;26.198;2022-12-18T12:52:55;10.13;;;7.50;;
9248;SDS011;4660;41.768;26.198;2022-12-18T12:55:28;10.90;;;7.03;;
9248;SDS011;4660;41.768;26.198;2022-12-18T12:57:57;8.10;;;6.20;;
9248;SDS011;4660;41.768;26.198;2022-12-18T13:01:12;11.23;;;7.97;;
9248;SDS011;4660;41.768;26.198;2022-12-18T13:09:24;16.57;;;11.30;;
9248;SDS011;4660;41.768;26.198;2022-12-18T13:11:55;13.77;;;9.80;;
9248;SDS011;4660;41.768;26.198;2022-12-18T13:14:47;14.43;;;9.50;;
9248;SDS011;4660;41.768;26.198;2022-12-18T13:20:04;19.53;;;13.07;;
9248;SDS011;4660;41.768;26.198;2022-12-18T13:25:33;14.50;;;10.03;;
9248;SDS011;4660;41.768;26.198;2022-12-18T13:36:01;15.97;;;9.90;;
9248;SDS011;4660;41.768;26.198;2022-12-18T13:38:34;15.57;;;10.03;;
9248;SDS011;4660;41.768;26.198;2022-12-18T13:43:49;15.83;;;10.00;;
9248;SDS011;4660;41.768;26.198;2022-12-18T13:46:27;18.67;;;11.27;;
9248;SDS011;4660;41.768;26.198;2022-12-18T13:51:39;17.93;;;12.17;;
9248;SDS011;4660;41.768;26.198;2022-12-18T13:56:58;15.23;;;10.07;;
9248;SDS011;4660;41.768;26.198;2022-12-18T13:59:25;16.40;;;10.90;;
9248;SDS011;4660;41.768;26.198;2022-12-18T14:02:00;13.60;;;9.57;;
9248;SDS011;4660;41.768;26.198;2022-12-18T14:04:38;13.80;;;10.00;;
9248;SDS011;4660;41.768;26.198;2022-12-18T14:07:15;13.00;;;10.10;;
9248;SDS011;4660;41.768;26.198;2022-12-18T14:09:48;15.47;;;11.17;;
9248;SDS011;4660;41.768;26.198;2022-12-18T14:12:22;14.50;;;11.00;;
9248;SDS011;4660;41.768;26.198;2022-12-18T14:15:21;15.33;;;10.83;;
9248;SDS011;4660;41.768;26.198;2022-12-18T14:17:52;12.40;;;9.43;;
9248;SDS011;4660;41.768;26.198;2022-12-18T14:20:39;11.37;;;9.00;;
9248;SDS011;4660;41.768;26.198;2022-12-18T14:26:21;21.37;;;13.43;;
9248;SDS011;4660;41.768;26.198;2022-12-18T14:28:56;14.43;;;10.43;;
9248;SDS011;4660;41.768;26.198;2022-12-18T14:31:32;18.70;;;12.00;;
9248;SDS011;4660;41.768;26.198;2022-12-18T14:34:01;18.17;;;13.00;;
9248;SDS011;4660;41.768;26.198;2022-12-18T14:36:52;14.47;;;10.40;;
9248;SDS011;4660;41.768;26.198;2022-12-18T14:39:20;16.27;;;10.83;;
9248;SDS011;4660;41.768;26.198;2022-12-18T14:41:48;22.03;;;12.90;;
9248;SDS011;4660;41.768;26.198;2022-12-18T14:44:14;17.47;;;11.07;;
9248;SDS011;4660;41.768;26.198;2022-12-18T14:46:44;18.30;;;12.20;;
9248;SDS011;4660;41.768;26.198;2022-12-18T14:52:05;15.13;;;10.27;;
9248;SDS011;4660;41.768;26.198;2022-12-18T14:54:45;16.23;;;10.93;;
9248;SDS011;4660;41.768;26.198;2022-12-18T14:57:29;19.47;;;12.30;;
9248;SDS011;4660;41.768;26.198;2022-12-18T15:00:06;14.83;;;10.27;;
9248;SDS011;4660;41.768;26.198;2022-12-18T15:02:40;12.13;;;9.30;;
9248;SDS011;4660;41.768;26.198;2022-12-18T15:07:45;15.93;;;11.27;;
9248;SDS011;4660;41.768;26.198;2022-12-18T15:10:13;18.07;;;12.63;;
9248;SDS011;4660;41.768;26.198;2022-12-18T15:17:59;11.80;;;8.10;;
9248;SDS011;4660;41.768;26.198;2022-12-18T15:20:25;11.23;;;8.20;;
9248;SDS011;4660;41.768;26.198;2022-12-18T15:22:54;14.37;;;9.63;;
9248;SDS011;4660;41.768;26.198;2022-12-18T15:25:32;14.10;;;8.97;;
9248;SDS011;4660;41.768;26.198;2022-12-18T15:28:04;14.17;;;9.70;;
9248;SDS011;4660;41.768;26.198;2022-12-18T15:31:04;15.33;;;10.23;;
9248;SDS011;4660;41.768;26.198;2022-12-18T15:33:31;19.37;;;12.23;;
9248;SDS011;4660;41.768;26.198;2022-12-18T15:36:03;18.60;;;10.87;;
9248;SDS011;4660;41.768;26.198;2022-12-18T15:38:30;22.57;;;12.50;;
9248;SDS011;4660;41.768;26.198;2022-12-18T15:40:59;18.87;;;12.70;;
9248;SDS011;4660;41.768;26.198;2022-12-18T15:43:26;19.67;;;12.53;;
9248;SDS011;4660;41.768;26.198;2022-12-18T15:46:01;14.37;;;10.10;;
9248;SDS011;4660;41.768;26.198;2022-12-18T15:48:33;15.93;;;11.13;;
9248;SDS011;4660;41.768;26.198;2022-12-18T15:51:00;16.17;;;10.43;;
9248;SDS011;4660;41.768;26.198;2022-12-18T15:53:29;12.03;;;8.93;;
9248;SDS011;4660;41.768;26.198;2022-12-18T15:56:00;15.50;;;10.00;;
9248;SDS011;4660;41.768;26.198;2022-12-18T15:58:50;12.77;;;9.87;;
9248;SDS011;4660;41.768;26.198;2022-12-18T16:01:26;15.20;;;11.00;;
9248;SDS011;4660;41.768;26.198;2022-12-18T16:03:55;17.30;;;11.97;;
9248;SDS011;4660;41.768;26.198;2022-12-18T16:06:27;17.37;;;10.97;;
9248;SDS011;4660;41.768;26.198;2022-12-18T16:08:55;21.73;;;13.23;;
9248;SDS011;4660;41.768;26.198;2022-12-18T16:11:25;22.40;;;14.00;;
9248;SDS011;4660;41.768;26.198;2022-12-18T16:16:40;19.23;;;11.47;;
9248;SDS011;4660;41.768;26.198;2022-12-18T16:19:06;16.03;;;11.30;;
9248;SDS011;4660;41.768;26.198;2022-12-18T16:21:34;17.13;;;11.47;;
9248;SDS011;4660;41.768;26.198;2022-12-18T16:24:05;17.60;;;12.03;;
9248;SDS011;4660;41.768;26.198;2022-12-18T16:26:35;16.30;;;11.93;;
9248;SDS011;4660;41.768;26.198;2022-12-18T16:29:04;16.17;;;11.63;;
9248;SDS011;4660;41.768;26.198;2022-12-18T16:31:47;18.23;;;12.47;;
9248;SDS011;4660;41.768;26.198;2022-12-18T16:34:18;18.50;;;12.63;;
9248;SDS011;4660;41.768;26.198;2022-12-18T16:36:50;18.83;;;13.17;;
9248;SDS011;4660;41.768;26.198;2022-12-18T16:39:25;21.47;;;12.57;;
9248;SDS011;4660;41.768;26.198;2022-12-18T16:42:17;18.93;;;11.73;;
9248;SDS011;4660;41.768;26.198;2022-12-18T16:44:45;18.47;;;12.33;;
9248;SDS011;4660;41.768;26.198;2022-12-18T16:50:05;20.00;;;14.10;;
9248;SDS011;4660;41.768;26.198;2022-12-18T16:52:51;17.87;;;12.57;;
9248;SDS011;4660;41.768;26.198;2022-12-18T16:55:43;20.03;;;14.33;;
9248;SDS011;4660;41.768;26.198;2022-12-18T16:58:33;26.47;;;17.57;;
9248;SDS011;4660;41.768;26.198;2022-12-18T17:01:17;36.47;;;23.87;;
9248;SDS011;4660;41.768;26.198;2022-12-18T17:03:44;27.43;;;18.77;;
9248;SDS011;4660;41.768;26.198;2022-12-18T17:06:17;23.27;;;15.33;;
9248;SDS011;4660;41.768;26.198;2022-12-18T17:08:46;29.07;;;17.30;;
9248;SDS011;4660;41.768;26.198;2022-12-18T17:11:12;28.37;;;16.90;;
9248;SDS011;4660;41.768;26.198;2022-12-18T17:13:39;28.17;;;15.93;;
9248;SDS011;4660;41.768;26.198;2022-12-18T17:16:07;25.73;;;16.27;;
9248;SDS011;4660;41.768;26.198;2022-12-18T17:18:36;20.93;;;14.77;;
9248;SDS011;4660;41.768;26.198;2022-12-18T17:21:02;26.90;;;15.87;;